Time Latitude Longitude Accuracy (66% radius in meters) Altitude (meters) Speed (km/hour) Bearing (degrees) Battery (%) GPS flag
09:32:02 55.602189 37.899077 10 181 0.068916328251362 138.17140197754 67 1 delete
09:31:12 55.602271 37.898998 10 197 0.13398119807243 187.00115966797 67 1 delete
09:29:48 55.602368 37.899232 10 159 0.15692356228828 339.91448974609 67 1 delete
09:29:16 55.602275 37.899274 15 148 0 51.667964935303 67 1 delete
09:28:11 55.602061 37.899126 10 191 0.64865928888321 195.09623718262 67 1 delete
09:27:01 55.602258 37.899169 10 184 0 180.54258728027 67 1 delete
09:22:09 55.602122 37.899121 10 178 0.29667657613754 178.25238037109 67 1 delete
09:18:41 55.602217 37.899047 10 157 0 173.57052612305 71 1 delete
09:17:13 55.602012 37.899058 10 171 0 173.57052612305 71 1 delete
09:16:52 55.601930 37.898974 10 177 0 173.57052612305 71 1 delete
09:16:38 55.601781 37.898943 10 176 0 157.72302246094 71 1 delete
09:15:06 55.601708 37.899138 15 174 3.7053120136261 173.87428283691 71 1 delete
09:14:37 55.601993 37.899023 10 188 1.6472883224487 172.11753845215 71 1 delete
09:13:54 55.602090 37.899056 10 170 0 238.66497802734 71 1 delete
09:12:41 55.602175 37.899003 5 175 0 121.58167266846 71 1 delete
09:12:16 55.602331 37.898549 10 171 3.2270982265472 134.5032043457 71 1 delete
09:12:14 55.602401 37.898435 10 176 3.0364992618561 134.50625610352 71 1 delete
09:12:11 55.602480 37.898253 10 173 2.7156610488892 133.68196105957 71 1 delete
09:12:09 55.602542 37.898110 10 173 2.5121641159058 130.73167419434 71 1 delete
09:12:06 55.602596 37.897936 10 174 2.4220380783081 103.16163635254 71 1 delete
09:12:03 55.602631 37.897759 10 174 2.4261813163757 86.504608154297 71 1 delete
09:12:00 55.602597 37.897567 10 179 2.1224634647369 63.635787963867 71 1 delete
09:11:56 55.602558 37.897380 10 172 2.0384674072266 50.446304321289 71 1 delete
09:11:52 55.602504 37.897230 10 170 2.0959131717682 55.637958526611 71 1 delete
09:11:49 55.602464 37.897079 10 174 2.1641480922699 7.6401720046997 71 1 delete
09:11:45 55.602355 37.897016 10 174 2.1261060237885 358.45092773438 71 1 delete
09:11:42 55.602262 37.896987 10 173 1.882143497467 11.617614746094 71 1 delete
09:11:39 55.602176 37.896917 10 174 1.6960977315903 21.902143478394 71 1 delete
09:11:33 55.602165 37.896755 10 179 1.6399766206741 87.83317565918 71 1 delete
09:11:28 55.602166 37.896581 10 180 0 48.893810272217 71 1 delete
09:11:17 55.602077 37.896262 10 187 1.8161609172821 73.258888244629 71 1 delete
09:11:05 55.601941 37.896074 10 177 2.221670627594 11.481355667114 71 1 delete
09:11:02 55.601836 37.896026 10 179 0 356.84170532227 71 1 delete
09:10:59 55.601743 37.895997 15 176 2.1245586872101 351.97073364258 71 1 delete
09:10:40 55.601345 37.895497 10 173 1.5505675077438 31.440422058105 71 1 delete
09:10:35 55.601258 37.895398 10 173 1.2622400522232 11.041536331177 71 1 delete
09:10:30 55.601168 37.895371 10 170 1.1512366533279 351.15533447266 71 1 delete
09:10:21 55.601091 37.895475 10 175 0 286.51431274414 71 1 delete
09:10:12 55.601133 37.895316 10 170 2.4470105171204 151.94929504395 71 1 delete
09:10:08 55.601206 37.895178 10 169 2.3678703308105 108.35195922852 71 1 delete
09:10:04 55.601239 37.895019 10 169 2.5779531002045 90.445693969727 71 1 delete
09:09:58 55.601354 37.894660 10 177 2.4958930015564 93.892593383789 71 1 delete
09:09:54 55.601393 37.894509 10 179 2.6181449890137 130.77952575684 71 1 delete
09:09:50 55.601449 37.894327 10 175 2.7686357498169 129.12419128418 71 1 delete
09:09:46 55.601512 37.894174 10 177 2.8628771305084 96.321891784668 71 1 delete
09:09:43 55.601529 37.894015 10 173 2.8456809520721 94.602470397949 71 1 delete
09:09:34 55.601673 37.893499 10 170 2.5367999076843 112.4323425293 71 1 delete
09:09:30 55.601730 37.893308 10 164 2.4336335659027 112.81214904785 71 1 delete
09:09:27 55.601775 37.893148 10 159 2.2462208271027 96.369674682617 71 1 delete
09:09:23 55.601825 37.892988 10 158 2.298282623291 133.20660400391 71 1 delete